Time;durP1;ratioP1;P1;durP2;ratioP2;P2;SDS_P1;SDS_P2;PMS_P1;PMS_P2;Temp;Humidity;BMP_temperature;BMP_pressure;BME280_temperature;BME280_humidity;BME280_pressure;Samples;Min_cycle;Max_cycle;Signal;HPM_P1;HPM_P2
2022/02/20 00:00:50;;;;;;;6.72;1.05;;;2.20;99.90;;;;;;5035305;28;20021;-75
2022/02/20 00:03:15;;;;;;;6.32;1.50;;;2.30;99.90;;;;;;5035166;28;20037;-75
2022/02/20 00:05:41;;;;;;;4.68;1.00;;;2.20;99.90;;;;;;5035131;28;20102;-75
2022/02/20 00:08:06;;;;;;;5.05;1.40;;;2.30;99.90;;;;;;5035159;28;20032;-75
2022/02/20 00:10:32;;;;;;;4.88;1.10;;;2.30;99.90;;;;;;5035049;28;20026;-75
2022/02/20 00:12:59;;;;;;;8.43;1.05;;;2.30;99.90;;;;;;5035026;28;20394;-74
2022/02/20 00:15:25;;;;;;;11.20;1.40;;;2.30;99.90;;;;;;5035160;28;20026;-73
2022/02/20 00:17:54;;;;;;;5.22;1.15;;;2.30;99.90;;;;;;5035169;28;20026;-74
2022/02/20 00:20:21;;;;;;;4.80;1.77;;;2.30;99.90;;;;;;5034918;28;20026;-74
2022/02/20 00:22:47;;;;;;;8.00;1.92;;;2.30;99.90;;;;;;5017018;28;20416;-73
2022/02/20 00:25:13;;;;;;;9.50;2.08;;;2.30;99.90;;;;;;5034644;28;20029;-73
2022/02/20 00:27:39;;;;;;;19.25;4.03;;;2.30;99.90;;;;;;5034677;28;20109;-74
2022/02/20 00:30:05;;;;;;;5.45;1.33;;;2.30;99.90;;;;;;5034675;28;20057;-74
2022/02/20 00:32:31;;;;;;;16.67;3.40;;;2.30;99.90;;;;;;5034544;28;20017;-73
2022/02/20 00:34:57;;;;;;;10.60;1.30;;;2.30;99.90;;;;;;5034707;28;20017;-73
2022/02/20 00:37:22;;;;;;;10.52;1.33;;;2.30;99.90;;;;;;5034414;28;20037;-74
2022/02/20 00:39:48;;;;;;;7.15;1.33;;;2.30;99.90;;;;;;5033919;28;20473;-73
2022/02/20 00:42:13;;;;;;;16.75;1.50;;;2.40;99.90;;;;;;5016851;28;20028;-74
2022/02/20 00:44:39;;;;;;;6.95;1.55;;;2.40;99.90;;;;;;5034667;28;20029;-74
2022/02/20 00:47:05;;;;;;;9.65;2.55;;;2.40;99.90;;;;;;5034528;28;20025;-74
2022/02/20 00:49:30;;;;;;;12.10;1.38;;;2.40;99.90;;;;;;5034275;28;20029;-73
2022/02/20 00:51:56;;;;;;;7.40;1.20;;;2.30;99.90;;;;;;5034386;28;20113;-73
2022/02/20 00:54:21;;;;;;;7.45;1.40;;;2.30;99.90;;;;;;5034774;28;20048;-73
2022/02/20 00:56:47;;;;;;;7.90;1.65;;;2.20;99.90;;;;;;5034012;28;20025;-74
2022/02/20 00:59:12;;;;;;;11.90;1.58;;;2.10;99.90;;;;;;5034355;28;20101;-73
2022/02/20 01:01:38;;;;;;;13.32;1.60;;;2.10;99.90;;;;;;5034393;28;20025;-73
2022/02/20 01:04:04;;;;;;;10.65;1.88;;;2.10;99.90;;;;;;5034078;28;20098;-73
2022/02/20 01:06:29;;;;;;;25.50;1.73;;;2.10;99.90;;;;;;5034019;28;20037;-73
2022/02/20 01:08:55;;;;;;;8.38;1.10;;;2.00;99.90;;;;;;5034074;28;20469;-73
2022/02/20 01:11:21;;;;;;;7.68;2.00;;;1.90;99.90;;;;;;5034197;28;20025;-73
2022/02/20 01:13:47;;;;;;;7.03;1.40;;;1.80;99.90;;;;;;5034020;28;20096;-73
2022/02/20 01:16:14;;;;;;;13.48;1.30;;;1.70;99.90;;;;;;5033989;28;20041;-73
2022/02/20 01:18:40;;;;;;;7.78;1.23;;;1.60;99.90;;;;;;5033873;28;20104;-74
2022/02/20 01:21:06;;;;;;;4.88;1.63;;;1.60;99.90;;;;;;5033966;28;20112;-74
2022/02/20 01:23:32;;;;;;;20.38;1.42;;;1.50;99.90;;;;;;5033953;28;20134;-73
2022/02/20 01:25:58;;;;;;;7.93;1.58;;;1.30;99.90;;;;;;5033739;28;20029;-73
2022/02/20 01:28:23;;;;;;;10.48;1.73;;;1.20;99.90;;;;;;5016183;28;20021;-74
2022/02/20 01:30:49;;;;;;;5.78;1.30;;;1.20;99.90;;;;;;5034054;28;20025;-73
2022/02/20 01:33:17;;;;;;;9.10;1.58;;;1.10;99.90;;;;;;5033841;28;20021;-73
2022/02/20 01:35:43;;;;;;;11.70;1.38;;;1.10;99.90;;;;;;5033848;28;20028;-73
2022/02/20 01:38:08;;;;;;;11.18;1.83;;;1.00;99.90;;;;;;5034023;28;20021;-74
2022/02/20 01:40:34;;;;;;;5.97;1.27;;;1.10;99.90;;;;;;5033778;28;20025;-74
2022/02/20 01:43:01;;;;;;;3.50;1.40;;;0.90;99.90;;;;;;5033716;28;20022;-73
2022/02/20 01:45:27;;;;;;;11.48;1.65;;;0.80;99.90;;;;;;5033571;28;20029;-73
2022/02/20 01:47:53;;;;;;;16.17;4.13;;;0.80;99.90;;;;;;5033585;28;20444;-74
2022/02/20 01:50:18;;;;;;;12.80;2.65;;;0.80;99.90;;;;;;5033590;28;20107;-73
2022/02/20 01:52:45;;;;;;;26.13;6.05;;;0.80;99.90;;;;;;5018460;28;20026;-73
2022/02/20 01:55:11;;;;;;;43.65;9.52;;;0.80;99.90;;;;;;5037570;28;20079;-74
2022/02/20 01:57:39;;;;;;;26.88;5.45;;;0.70;99.90;;;;;;5037694;28;20436;-74
2022/02/20 02:00:08;;;;;;;10.30;1.70;;;0.60;99.90;;;;;;5037736;28;20076;-74
2022/02/20 02:02:33;;;;;;;27.38;4.80;;;0.60;99.90;;;;;;5037422;28;20075;-74
2022/02/20 02:04:59;;;;;;;54.95;11.98;;;0.50;99.90;;;;;;5037352;28;20029;-74
2022/02/20 02:07:27;;;;;;;37.97;8.18;;;0.60;99.90;;;;;;5037643;28;20421;-74
2022/02/20 02:09:53;;;;;;;27.63;9.02;;;0.50;99.90;;;;;;5037866;28;20373;-73
2022/02/20 02:12:18;;;;;;;17.30;3.78;;;0.50;99.90;;;;;;5037207;28;20021;-73
2022/02/20 02:14:54;;;;;;;21.45;3.75;;;0.50;99.90;;;;;;5019527;28;20022;-73
2022/02/20 02:17:20;;;;;;;22.30;5.47;;;0.50;99.90;;;;;;5037360;28;20504;-74
2022/02/20 02:19:46;;;;;;;16.65;4.38;;;0.40;99.90;;;;;;5019523;28;20061;-73
2022/02/20 02:22:11;;;;;;;15.60;3.63;;;0.50;99.90;;;;;;5037263;28;20091;-73
2022/02/20 02:24:37;;;;;;;8.13;2.63;;;0.50;99.90;;;;;;5036983;28;20504;-73
2022/02/20 02:27:03;;;;;;;16.73;2.40;;;0.40;99.90;;;;;;5037185;28;20056;-74
2022/02/20 02:29:29;;;;;;;16.30;2.50;;;0.40;99.90;;;;;;5036906;28;20053;-74
2022/02/20 02:31:54;;;;;;;6.70;1.88;;;0.30;99.90;;;;;;5037043;28;20473;-74
2022/02/20 02:34:20;;;;;;;15.10;2.03;;;0.30;99.90;;;;;;5036910;28;20022;-73
2022/02/20 02:36:49;;;;;;;7.35;1.10;;;0.40;99.90;;;;;;5036827;28;20029;-74
2022/02/20 02:39:18;;;;;;;4.93;1.50;;;0.40;99.90;;;;;;5036780;28;20029;-73
2022/02/20 02:41:44;;;;;;;16.92;2.65;;;0.40;99.90;;;;;;5036686;28;20056;-74
2022/02/20 02:44:09;;;;;;;14.23;2.35;;;0.40;99.90;;;;;;5036671;28;20025;-73
2022/02/20 02:46:35;;;;;;;14.60;2.00;;;0.40;99.90;;;;;;5018819;28;20096;-73
2022/02/20 02:49:01;;;;;;;9.23;1.90;;;0.50;99.90;;;;;;5036582;28;20099;-73
2022/02/20 02:51:27;;;;;;;13.63;2.30;;;0.50;99.90;;;;;;5036465;28;20018;-73
2022/02/20 02:53:55;;;;;;;18.08;2.65;;;0.50;99.90;;;;;;5036561;28;20076;-73
2022/02/20 02:56:21;;;;;;;25.35;2.33;;;0.50;99.90;;;;;;5036479;28;20037;-74
2022/02/20 02:58:47;;;;;;;19.95;2.65;;;0.60;99.90;;;;;;5036810;28;20033;-74
2022/02/20 03:01:13;;;;;;;19.48;2.65;;;0.80;99.90;;;;;;5036313;28;20029;-74
2022/02/20 03:03:39;;;;;;;29.65;3.10;;;1.00;99.90;;;;;;5036092;28;20069;-74
2022/02/20 03:06:13;;;;;;;15.50;3.13;;;1.30;99.90;;;;;;5036213;28;20072;-73
2022/02/20 03:08:39;;;;;;;24.27;3.05;;;1.40;99.90;;;;;;5036200;28;20021;-74
2022/02/20 03:11:05;;;;;;;16.85;2.97;;;1.50;99.90;;;;;;5036187;28;20113;-74
2022/02/20 03:13:32;;;;;;;27.10;3.30;;;1.50;99.90;;;;;;5036098;28;20026;-74
2022/02/20 03:15:58;;;;;;;23.70;2.33;;;1.50;99.90;;;;;;5036227;28;20037;-74
2022/02/20 03:18:25;;;;;;;25.27;2.47;;;1.50;99.90;;;;;;5035920;28;20025;-74
2022/02/20 03:20:50;;;;;;;23.95;3.42;;;1.40;99.90;;;;;;5036238;28;20030;-73
2022/02/20 03:23:16;;;;;;;13.93;1.92;;;1.40;99.90;;;;;;5036199;28;20029;-74
2022/02/20 03:25:42;;;;;;;28.33;4.13;;;1.30;99.90;;;;;;5035818;28;20096;-74
2022/02/20 03:28:08;;;;;;;37.88;3.13;;;1.30;99.90;;;;;;5035704;28;20021;-74
2022/02/20 03:30:33;;;;;;;28.55;3.20;;;1.40;99.90;;;;;;5035887;28;20382;-73
2022/02/20 03:32:59;;;;;;;28.92;3.55;;;1.50;99.90;;;;;;5018060;28;20017;-73
2022/02/20 03:35:25;;;;;;;33.17;3.80;;;1.60;99.90;;;;;;5035727;28;20489;-74
2022/02/20 03:37:50;;;;;;;29.80;3.08;;;1.80;99.90;;;;;;5035664;28;20390;-73
2022/02/20 03:40:16;;;;;;;32.70;4.90;;;1.90;99.90;;;;;;5035820;28;20037;-73
2022/02/20 03:42:41;;;;;;;19.83;2.60;;;1.90;99.90;;;;;;5035617;28;20120;-73
2022/02/20 03:45:08;;;;;;;28.88;2.50;;;1.90;99.90;;;;;;5035451;28;20079;-73
2022/02/20 03:47:34;;;;;;;17.17;2.60;;;1.90;99.90;;;;;;5035995;28;20159;-74
2022/02/20 03:49:59;;;;;;;31.33;3.65;;;1.90;99.90;;;;;;5035402;28;20089;-74
2022/02/20 03:52:25;;;;;;;24.50;3.67;;;1.80;99.90;;;;;;5035959;28;20067;-74
2022/02/20 03:54:51;;;;;;;21.92;3.35;;;1.80;99.90;;;;;;5017574;28;20025;-74
2022/02/20 03:57:16;;;;;;;21.80;2.83;;;1.70;99.90;;;;;;5035033;28;20029;-74
2022/02/20 03:59:42;;;;;;;18.40;3.05;;;1.60;99.90;;;;;;5035639;28;20108;-73
2022/02/20 04:02:07;;;;;;;23.17;2.60;;;1.60;99.90;;;;;;5035320;28;20029;-73
2022/02/20 04:04:33;;;;;;;12.10;3.40;;;1.50;99.90;;;;;;5035361;28;20477;-74
2022/02/20 04:06:59;;;;;;;22.90;3.90;;;1.40;99.90;;;;;;5035604;28;20426;-74
2022/02/20 04:09:25;;;;;;;28.05;3.08;;;1.40;99.90;;;;;;5035074;28;20489;-73
2022/02/20 04:11:51;;;;;;;19.00;2.83;;;1.40;99.90;;;;;;5035376;28;20551;-73
2022/02/20 04:14:16;;;;;;;14.85;2.13;;;1.40;99.90;;;;;;5034147;28;20026;-73
2022/02/20 04:16:42;;;;;;;17.88;2.60;;;1.40;99.90;;;;;;5035137;28;20108;-73
2022/02/20 04:19:07;;;;;;;7.85;2.45;;;1.40;99.90;;;;;;5034995;28;20086;-74
2022/02/20 04:21:33;;;;;;;20.30;2.75;;;1.50;99.90;;;;;;5034932;28;20117;-74
2022/02/20 04:23:59;;;;;;;22.65;3.30;;;1.50;99.90;;;;;;5035069;28;20056;-74
2022/02/20 04:26:25;;;;;;;23.35;3.33;;;1.40;99.90;;;;;;5034781;28;20025;-73
2022/02/20 04:28:51;;;;;;;20.92;2.72;;;1.50;99.90;;;;;;5034676;28;20096;-74
2022/02/20 04:31:17;;;;;;;14.05;2.28;;;1.50;99.90;;;;;;5034954;28;20496;-74
2022/02/20 04:33:43;;;;;;;31.95;2.45;;;1.50;99.90;;;;;;5034734;28;20029;-73
2022/02/20 04:36:13;;;;;;;20.95;2.53;;;1.50;99.90;;;;;;5034742;28;20025;-73
2022/02/20 04:38:39;;;;;;;11.55;2.33;;;1.40;99.90;;;;;;5034486;28;20030;-74
2022/02/20 04:41:04;;;;;;;12.65;1.65;;;1.40;99.90;;;;;;5034825;28;20025;-74
2022/02/20 04:43:30;;;;;;;11.05;2.53;;;1.30;99.90;;;;;;5034704;28;20036;-73
2022/02/20 04:45:56;;;;;;;30.13;3.10;;;1.30;99.90;;;;;;5034374;28;20029;-73
2022/02/20 04:48:22;;;;;;;13.93;2.20;;;1.30;99.90;;;;;;5016673;28;20034;-73
2022/02/20 04:50:48;;;;;;;21.65;2.65;;;1.30;99.90;;;;;;5034435;28;20537;-73
2022/02/20 04:53:14;;;;;;;19.15;2.42;;;1.40;99.90;;;;;;5034279;28;20049;-73
2022/02/20 04:55:39;;;;;;;23.45;2.10;;;1.40;99.90;;;;;;5034276;28;20036;-75
2022/02/20 04:58:05;;;;;;;17.17;2.10;;;1.50;99.90;;;;;;5034131;28;20041;-74
2022/02/20 05:00:31;;;;;;;20.13;2.05;;;1.50;99.90;;;;;;5034521;28;20025;-74
2022/02/20 05:02:56;;;;;;;22.80;3.35;;;1.50;99.90;;;;;;5034168;28;20040;-74
2022/02/20 05:05:22;;;;;;;21.75;3.50;;;1.70;99.90;;;;;;5034074;28;20025;-74
2022/02/20 05:07:47;;;;;;;24.05;2.28;;;1.80;99.90;;;;;;5017238;28;20082;-74
2022/02/20 05:10:13;;;;;;;27.23;2.47;;;1.90;99.90;;;;;;5034098;28;20427;-74
2022/02/20 05:12:39;;;;;;;34.97;4.63;;;2.00;99.90;;;;;;5016356;28;20021;-73
2022/02/20 05:15:05;;;;;;;22.30;2.88;;;2.00;99.90;;;;;;5034249;28;20385;-73
2022/02/20 05:17:30;;;;;;;53.45;2.58;;;2.00;99.90;;;;;;5034315;28;20079;-74
2022/02/20 05:19:56;;;;;;;26.42;2.50;;;2.00;99.90;;;;;;5034391;28;20037;-73
2022/02/20 05:22:21;;;;;;;25.80;3.03;;;1.90;99.90;;;;;;5016300;28;20021;-73
2022/02/20 05:24:49;;;;;;;33.20;3.20;;;1.90;99.90;;;;;;5033859;28;20088;-73
2022/02/20 05:27:15;;;;;;;17.10;2.22;;;1.80;99.90;;;;;;5033728;28;20087;-74
2022/02/20 05:29:41;;;;;;;18.70;3.22;;;1.80;99.90;;;;;;5034009;28;20029;-73
2022/02/20 05:32:07;;;;;;;21.90;1.98;;;1.70;99.90;;;;;;5033776;28;20029;-73
2022/02/20 05:34:32;;;;;;;25.10;1.90;;;1.70;99.90;;;;;;5033678;28;20033;-73
2022/02/20 05:36:58;;;;;;;14.50;1.52;;;1.70;99.90;;;;;;5034340;28;20021;-74
2022/02/20 05:39:23;;;;;;;31.48;2.67;;;1.70;99.90;;;;;;5033958;28;20022;-74
2022/02/20 05:41:49;;;;;;;23.80;2.53;;;1.60;99.90;;;;;;5033673;28;20531;-73
2022/02/20 05:44:14;;;;;;;35.97;2.45;;;1.60;99.90;;;;;;5033688;28;20473;-73
2022/02/20 05:46:40;;;;;;;35.50;2.90;;;1.60;99.90;;;;;;5033607;28;20397;-73
2022/02/20 05:49:05;;;;;;;35.50;2.88;;;1.60;99.90;;;;;;5033523;28;20396;-74
2022/02/20 05:51:32;;;;;;;26.95;2.70;;;1.70;99.90;;;;;;5033644;28;20048;-74
2022/02/20 05:53:57;;;;;;;22.83;3.33;;;2.00;99.90;;;;;;5033950;28;20488;-74
2022/02/20 05:56:23;;;;;;;38.67;3.15;;;2.00;99.90;;;;;;5033681;28;20049;-74
2022/02/20 05:58:49;;;;;;;39.10;3.60;;;2.00;99.90;;;;;;5033472;28;20045;-74
2022/02/20 06:01:14;;;;;;;19.02;2.15;;;2.00;99.90;;;;;;5033562;28;20108;-73
2022/02/20 06:03:40;;;;;;;39.47;3.17;;;1.90;99.90;;;;;;5033506;28;20026;-75
2022/02/20 06:06:05;;;;;;;34.83;2.38;;;1.90;99.90;;;;;;5033740;28;20033;-74
2022/02/20 06:08:31;;;;;;;24.35;2.40;;;1.90;99.90;;;;;;5033429;28;20029;-74
2022/02/20 06:10:57;;;;;;;33.65;2.67;;;1.90;99.90;;;;;;5034042;28;20096;-73
2022/02/20 06:13:22;;;;;;;43.47;3.60;;;1.90;99.90;;;;;;5033475;28;20102;-73
2022/02/20 06:15:48;;;;;;;46.13;2.97;;;1.90;99.90;;;;;;5033927;28;20105;-73
2022/02/20 06:18:14;;;;;;;20.02;2.20;;;1.90;99.90;;;;;;5033470;28;20049;-74
2022/02/20 06:20:40;;;;;;;30.73;2.63;;;2.00;99.90;;;;;;5033326;28;20026;-75
2022/02/20 06:23:05;;;;;;;18.48;2.25;;;2.00;99.90;;;;;;5033417;28;20087;-74
2022/02/20 06:25:31;;;;;;;35.38;2.95;;;2.00;99.90;;;;;;5033226;28;20030;-73
2022/02/20 06:27:57;;;;;;;13.38;2.28;;;2.10;99.90;;;;;;5033478;28;20033;-74
2022/02/20 06:30:23;;;;;;;32.95;2.95;;;2.10;99.90;;;;;;5033331;28;20030;-73
2022/02/20 06:32:48;;;;;;;19.02;2.53;;;2.30;99.90;;;;;;5033310;28;20100;-73
2022/02/20 06:35:14;;;;;;;21.50;2.63;;;2.50;99.90;;;;;;5033309;28;20110;-73
2022/02/20 06:37:39;;;;;;;23.38;2.15;;;2.60;99.90;;;;;;5033940;28;20054;-74
2022/02/20 06:40:06;;;;;;;26.63;2.25;;;2.60;99.90;;;;;;5036796;28;20029;-73
2022/02/20 06:42:31;;;;;;;32.50;3.08;;;2.60;99.90;;;;;;5036846;28;20025;-73
2022/02/20 06:44:57;;;;;;;31.08;2.85;;;2.60;99.90;;;;;;5018875;28;20039;-73
2022/02/20 06:47:22;;;;;;;31.45;3.28;;;2.70;99.90;;;;;;5036574;28;20470;-74
2022/02/20 06:49:48;;;;;;;11.65;2.42;;;2.60;99.90;;;;;;5036601;28;20021;-74
2022/02/20 06:52:13;;;;;;;25.05;3.83;;;2.80;99.90;;;;;;5036476;28;20044;-73
2022/02/20 06:54:39;;;;;;;26.02;3.95;;;2.90;99.90;;;;;;5036468;28;20075;-73
2022/02/20 06:57:05;;;;;;;20.50;2.42;;;2.90;99.90;;;;;;5036376;28;20096;-74
2022/02/20 06:59:30;;;;;;;25.10;2.63;;;2.90;99.90;;;;;;5036643;28;20465;-74
2022/02/20 07:01:56;;;;;;;33.85;3.40;;;2.90;99.90;;;;;;5037039;28;20029;-73
2022/02/20 07:04:21;;;;;;;29.92;3.00;;;2.80;99.90;;;;;;5036560;28;20354;-73
2022/02/20 07:06:47;;;;;;;19.05;1.83;;;2.80;99.90;;;;;;5036081;28;20034;-74
2022/02/20 07:09:13;;;;;;;29.73;2.85;;;2.90;99.90;;;;;;5036541;28;20128;-74
2022/02/20 07:11:40;;;;;;;32.70;3.45;;;3.00;99.90;;;;;;5036452;28;20036;-74
2022/02/20 07:14:05;;;;;;;16.08;3.28;;;2.90;99.90;;;;;;5036145;28;20495;-73
2022/02/20 07:16:32;;;;;;;31.95;3.20;;;3.00;99.90;;;;;;5036168;28;20057;-73
2022/02/20 07:18:58;;;;;;;24.70;3.10;;;3.00;99.90;;;;;;5018220;28;20478;-74
2022/02/20 07:21:24;;;;;;;28.58;2.33;;;3.00;99.90;;;;;;5036301;28;20048;-73
2022/02/20 07:23:51;;;;;;;24.45;3.03;;;3.10;99.90;;;;;;5036230;28;20104;-73
2022/02/20 07:26:16;;;;;;;27.35;3.38;;;3.00;99.90;;;;;;5035874;28;20030;-73
2022/02/20 07:28:42;;;;;;;33.60;3.50;;;3.10;99.90;;;;;;5018190;28;20455;-74
2022/02/20 07:31:08;;;;;;;55.20;2.67;;;3.00;99.90;;;;;;5018184;28;20052;-73
2022/02/20 07:33:33;;;;;;;28.48;3.55;;;3.10;99.90;;;;;;5035955;28;20022;-73
2022/02/20 07:35:59;;;;;;;31.40;3.13;;;3.10;99.90;;;;;;5035708;28;20091;-73
2022/02/20 07:38:25;;;;;;;36.88;3.78;;;3.10;99.90;;;;;;5036241;28;20540;-74
2022/02/20 07:40:51;;;;;;;15.63;2.75;;;3.20;99.90;;;;;;5035685;28;20081;-73
2022/02/20 07:43:16;;;;;;;30.83;3.05;;;3.20;99.90;;;;;;5035851;28;20082;-73
2022/02/20 07:45:42;;;;;;;27.95;3.10;;;3.20;99.90;;;;;;5035507;28;20100;-73
2022/02/20 07:48:08;;;;;;;26.30;2.17;;;3.30;99.90;;;;;;5035830;28;20025;-74
2022/02/20 07:50:36;;;;;;;22.27;3.13;;;3.30;99.90;;;;;;5035791;28;20073;-73
2022/02/20 07:53:04;;;;;;;17.13;2.75;;;3.40;99.90;;;;;;5036039;28;20029;-73
2022/02/20 07:55:30;;;;;;;27.63;4.28;;;3.40;99.90;;;;;;5035372;28;20107;-73
2022/02/20 07:57:58;;;;;;;16.67;3.83;;;3.50;99.90;;;;;;5035301;28;20489;-74
2022/02/20 08:00:30;;;;;;;21.65;4.53;;;3.50;99.90;;;;;;5035491;28;20037;-73
2022/02/20 08:02:56;;;;;;;28.30;4.50;;;3.60;99.90;;;;;;5035525;28;20028;-73
2022/02/20 08:05:22;;;;;;;27.83;5.30;;;3.60;99.90;;;;;;5035064;28;20052;-73
2022/02/20 08:07:47;;;;;;;20.67;4.88;;;3.70;99.90;;;;;;5035210;28;20029;-71
2022/02/20 08:10:13;;;;;;;16.65;3.70;;;3.70;99.90;;;;;;5035418;28;20029;-74
2022/02/20 08:12:38;;;;;;;28.38;4.68;;;3.80;99.90;;;;;;5035122;28;20032;-74
2022/02/20 08:15:05;;;;;;;28.63;5.63;;;3.80;99.90;;;;;;5035156;28;20021;-74
2022/02/20 08:17:31;;;;;;;22.85;4.90;;;3.80;99.90;;;;;;5034937;28;20120;-75
2022/02/20 08:19:57;;;;;;;22.70;5.88;;;3.80;99.90;;;;;;5034974;28;20065;-74
2022/02/20 08:22:22;;;;;;;17.05;4.97;;;3.80;99.90;;;;;;5035046;28;20499;-74
2022/02/20 08:24:48;;;;;;;28.50;5.35;;;3.90;99.90;;;;;;5034888;28;20040;-73
2022/02/20 08:27:14;;;;;;;31.98;6.75;;;3.80;99.90;;;;;;5034854;28;20017;-74
2022/02/20 08:29:41;;;;;;;19.67;6.90;;;3.80;99.90;;;;;;5017245;28;20029;-73
2022/02/20 08:32:07;;;;;;;18.73;6.57;;;3.80;99.90;;;;;;5017245;28;20037;-73
2022/02/20 08:34:34;;;;;;;21.98;6.20;;;3.80;99.90;;;;;;5017090;28;20115;-73
2022/02/20 08:37:00;;;;;;;16.63;5.88;;;3.80;99.90;;;;;;5035048;28;20026;-74
2022/02/20 08:39:27;;;;;;;24.10;6.40;;;3.80;99.90;;;;;;5034887;28;20133;-74
2022/02/20 08:41:53;;;;;;;19.30;6.95;;;3.80;99.90;;;;;;5035439;28;20037;-74
2022/02/20 08:44:18;;;;;;;21.02;7.20;;;3.80;99.90;;;;;;5035098;28;20097;-74
2022/02/20 08:46:44;;;;;;;23.75;8.45;;;3.80;99.90;;;;;;5017103;28;20466;-74
2022/02/20 08:49:10;;;;;;;18.98;8.15;;;3.70;99.90;;;;;;5034697;28;20025;-73
2022/02/20 08:51:36;;;;;;;20.55;7.93;;;3.70;99.90;;;;;;5034597;28;20043;-73
2022/02/20 08:54:01;;;;;;;26.58;9.25;;;3.60;99.90;;;;;;5017110;28;20022;-73
2022/02/20 08:56:27;;;;;;;22.52;8.75;;;3.50;99.90;;;;;;5034471;28;20068;-74
2022/02/20 08:58:53;;;;;;;24.25;8.57;;;3.50;99.90;;;;;;5017092;28;20029;-76
2022/02/20 09:01:19;;;;;;;16.58;7.53;;;3.50;99.90;;;;;;5033873;28;20029;-76
2022/02/20 09:03:45;;;;;;;22.48;7.55;;;3.40;99.90;;;;;;5034249;28;20025;-76
2022/02/20 09:06:11;;;;;;;15.65;6.95;;;3.30;99.90;;;;;;5034191;28;20389;-76
2022/02/20 09:08:37;;;;;;;16.98;7.72;;;3.30;99.90;;;;;;5034397;28;20022;-76
2022/02/20 09:11:03;;;;;;;16.55;6.53;;;3.30;99.90;;;;;;5034180;28;20025;-76
2022/02/20 09:13:28;;;;;;;16.13;5.05;;;3.20;99.90;;;;;;5034244;28;20017;-76
2022/02/20 09:15:54;;;;;;;15.35;6.53;;;3.10;99.90;;;;;;5034390;28;20059;-76
2022/02/20 09:18:20;;;;;;;14.52;5.82;;;3.10;99.90;;;;;;5034134;28;20091;-76
2022/02/20 09:20:46;;;;;;;15.43;6.20;;;3.10;99.90;;;;;;5016353;28;20053;-76
2022/02/20 09:23:11;;;;;;;11.48;5.70;;;3.10;99.90;;;;;;5016284;28;20092;-76
2022/02/20 09:25:37;;;;;;;9.10;6.47;;;3.10;99.90;;;;;;5033922;28;20029;-75
2022/02/20 09:28:03;;;;;;;17.20;5.82;;;3.10;99.90;;;;;;5034204;28;20440;-76
2022/02/20 09:30:29;;;;;;;11.90;4.85;;;3.10;99.90;;;;;;5016212;28;20071;-76
2022/02/20 09:32:55;;;;;;;15.65;5.28;;;3.10;99.90;;;;;;5034076;28;20036;-76
2022/02/20 09:35:22;;;;;;;12.02;5.55;;;3.00;99.90;;;;;;5016824;28;20033;-76
2022/02/20 09:37:47;;;;;;;15.63;6.10;;;3.10;99.90;;;;;;5033876;28;20033;-76
2022/02/20 09:40:13;;;;;;;10.05;5.00;;;3.10;99.90;;;;;;5034142;28;20022;-76
2022/02/20 09:42:39;;;;;;;9.55;4.88;;;3.00;99.90;;;;;;5033920;28;20068;-76
2022/02/20 09:45:05;;;;;;;9.77;4.82;;;3.00;99.90;;;;;;5033720;28;20033;-76
2022/02/20 09:47:31;;;;;;;10.10;5.55;;;3.00;99.90;;;;;;5016085;28;20025;-76
2022/02/20 09:50:02;;;;;;;9.90;4.55;;;3.00;99.90;;;;;;5034248;28;20025;-76
2022/02/20 09:52:28;;;;;;;13.25;5.85;;;3.00;99.90;;;;;;5033995;28;20389;-76
2022/02/20 09:54:54;;;;;;;6.70;4.53;;;3.00;99.90;;;;;;5033688;28;20022;-76
2022/02/20 09:57:20;;;;;;;11.32;5.57;;;3.00;99.90;;;;;;5033815;28;20099;-76
2022/02/20 09:59:45;;;;;;;12.75;5.53;;;2.90;99.90;;;;;;5033951;28;20067;-75
2022/02/20 10:02:14;;;;;;;9.50;5.72;;;3.00;99.90;;;;;;5033740;28;20109;-75
2022/02/20 10:04:43;;;;;;;19.67;7.10;;;3.00;99.90;;;;;;5015936;28;20101;-76
2022/02/20 10:07:30;;;;;;;11.35;7.05;;;3.00;99.90;;;;;;5033761;28;20076;-76
2022/02/20 10:09:59;;;;;;;13.82;7.40;;;3.00;99.90;;;;;;5033876;28;20056;-76
2022/02/20 10:12:27;;;;;;;11.05;6.70;;;2.90;99.90;;;;;;5034048;28;20071;-76
2022/02/20 10:14:54;;;;;;;10.00;5.78;;;3.00;99.90;;;;;;5037478;28;20017;-76
2022/02/20 10:17:21;;;;;;;6.50;4.63;;;2.80;99.90;;;;;;5037276;28;20017;-76
2022/02/20 10:20:05;;;;;;;10.32;5.60;;;2.70;99.90;;;;;;5038242;28;20018;-76
2022/02/20 10:22:35;;;;;;;;;;;2.70;99.90;;;;;;5038175;28;20508;-76
2022/02/20 10:25:03;;;;;;;11.60;5.47;;;2.70;99.90;;;;;;5037564;28;19920;-77
2022/02/20 10:27:29;;;;;;;8.20;5.70;;;2.70;99.90;;;;;;5019413;28;20119;-76
2022/02/20 10:30:09;;;;;;;8.02;5.53;;;2.70;99.90;;;;;;5037452;28;20482;-76
2022/02/20 10:32:35;;;;;;;8.32;5.05;;;2.70;99.90;;;;;;5037381;28;20044;-76
2022/02/20 10:35:18;;;;;;;8.18;4.93;;;2.60;99.90;;;;;;5037137;28;20076;-76
2022/02/20 10:37:44;;;;;;;8.70;5.60;;;2.60;99.90;;;;;;5036875;28;20025;-76
2022/02/20 10:40:24;;;;;;;6.07;4.35;;;2.50;99.90;;;;;;5037454;28;20033;-76
2022/02/20 10:42:55;;;;;;;7.00;4.50;;;2.60;99.90;;;;;;5037149;28;20026;-76
2022/02/20 10:45:27;;;;;;;7.60;5.78;;;2.60;99.90;;;;;;5037118;28;20033;-76
2022/02/20 10:47:54;;;;;;;8.93;6.10;;;2.60;99.90;;;;;;5037483;28;20020;-76
2022/02/20 10:50:23;;;;;;;9.75;5.85;;;2.60;99.90;;;;;;5037004;28;20494;-76
2022/02/20 10:53:08;;;;;;;10.65;6.53;;;2.60;99.90;;;;;;5036695;28;20478;-76
2022/02/20 10:55:35;;;;;;;7.70;5.50;;;2.70;99.90;;;;;;5018765;28;20026;-75
2022/02/20 10:58:08;;;;;;;12.43;5.95;;;2.70;99.90;;;;;;5036452;28;20033;-76
2022/02/20 11:00:34;;;;;;;8.38;5.60;;;2.70;99.90;;;;;;5036745;28;20071;-75
2022/02/20 11:03:06;;;;;;;8.23;5.10;;;2.70;99.90;;;;;;5037002;28;20068;-75
2022/02/20 11:05:32;;;;;;;9.40;5.95;;;2.80;99.90;;;;;;5036534;28;20537;-75
2022/02/20 11:07:59;;;;;;;8.98;6.50;;;2.80;99.90;;;;;;5036646;28;20025;-76
2022/02/20 11:10:25;;;;;;;8.32;6.35;;;2.90;99.90;;;;;;5036282;28;20029;-76
2022/02/20 11:12:51;;;;;;;9.00;6.25;;;2.90;99.90;;;;;;5036391;28;20026;-76
2022/02/20 11:15:19;;;;;;;9.00;6.43;;;3.00;99.90;;;;;;5036117;28;20104;-76
2022/02/20 11:17:46;;;;;;;12.30;6.20;;;3.00;99.90;;;;;;5036393;28;20496;-75
2022/02/20 11:20:12;;;;;;;8.60;6.30;;;3.00;99.90;;;;;;5018342;28;20033;-75
2022/02/20 11:22:40;;;;;;;6.72;5.43;;;3.10;99.90;;;;;;5036130;28;20560;-75
2022/02/20 11:25:07;;;;;;;9.05;5.85;;;3.20;99.90;;;;;;5035551;28;20037;-76
2022/02/20 11:27:37;;;;;;;7.72;5.68;;;3.20;99.90;;;;;;5036104;28;20029;-76
2022/02/20 11:30:03;;;;;;;7.93;5.90;;;3.20;99.90;;;;;;5035991;28;20064;-76
2022/02/20 11:32:29;;;;;;;12.27;6.03;;;3.30;99.90;;;;;;5036245;28;20030;-77
2022/02/20 11:34:55;;;;;;;9.00;5.55;;;3.30;99.90;;;;;;5036884;28;20100;-76
2022/02/20 11:37:21;;;;;;;7.18;5.32;;;3.40;99.90;;;;;;5018876;28;20145;-76
2022/02/20 11:39:58;;;;;;;8.70;4.88;;;3.50;99.90;;;;;;5035727;28;20100;-75
2022/02/20 11:42:23;;;;;;;5.95;4.47;;;3.70;99.90;;;;;;5017949;28;20064;-76
2022/02/20 11:44:54;;;;;;;9.90;4.93;;;3.70;99.90;;;;;;5018596;28;20063;-75
2022/02/20 11:47:36;;;;;;;7.05;4.40;;;3.80;99.90;;;;;;5035883;28;20473;-75
2022/02/20 11:50:16;;;;;;;10.35;5.05;;;3.90;99.90;;;;;;5035525;28;20025;-75
2022/02/20 11:52:53;;;;;;;8.18;4.47;;;4.10;99.90;;;;;;5035498;28;20470;-75
2022/02/20 11:55:34;;;;;;;7.47;4.68;;;4.30;99.90;;;;;;5035704;28;20113;-75
2022/02/20 11:58:12;;;;;;;7.00;4.45;;;4.30;99.90;;;;;;5035256;28;20037;-75
2022/02/20 12:00:39;;;;;;;6.68;4.30;;;4.40;99.90;;;;;;5017529;28;20060;-76
2022/02/20 12:03:17;;;;;;;7.22;5.07;;;4.50;99.90;;;;;;5035481;28;20034;-76
2022/02/20 12:06:09;;;;;;;7.28;5.75;;;4.50;99.90;;;;;;5035141;28;20021;-75
2022/02/20 12:08:37;;;;;;;7.47;4.97;;;4.60;99.90;;;;;;5034923;28;20076;-75
2022/02/20 12:11:23;;;;;;;7.18;5.07;;;4.80;99.90;;;;;;5017303;28;20021;-75
2022/02/20 12:14:15;;;;;;;10.30;4.75;;;4.80;99.90;;;;;;5035071;28;20017;-74
2022/02/20 12:16:47;;;;;;;7.40;4.90;;;5.00;99.90;;;;;;5034840;28;20029;-76
2022/02/20 12:19:23;;;;;;;6.78;4.57;;;5.20;99.90;;;;;;5035172;28;20112;-76
2022/02/20 12:21:52;;;;;;;10.50;3.90;;;5.30;99.90;;;;;;5034827;28;20030;-76
2022/02/20 12:24:20;;;;;;;9.93;4.30;;;5.50;99.90;;;;;;5035510;28;20391;-76
2022/02/20 12:26:55;;;;;;;11.52;4.40;;;5.60;99.90;;;;;;5034859;28;20057;-75
2022/02/20 12:29:24;;;;;;;10.00;4.15;;;5.80;99.90;;;;;;5034698;28;20025;-77
2022/02/20 12:32:14;;;;;;;18.83;4.70;;;5.90;99.90;;;;;;5034472;28;20025;-75
2022/02/20 12:35:09;;;;;;;15.57;4.85;;;6.00;99.90;;;;;;5034596;28;20425;-76
2022/02/20 12:37:38;;;;;;;30.33;5.57;;;6.20;99.90;;;;;;5034187;28;20080;-75
2022/02/20 12:40:08;;;;;;;48.95;6.65;;;6.40;99.90;;;;;;5034500;28;20029;-76
2022/02/20 12:42:55;;;;;;;40.83;6.93;;;6.60;99.90;;;;;;5035218;28;20027;-77
2022/02/20 12:45:26;;;;;;;76.70;10.05;;;6.70;99.90;;;;;;5034440;28;20025;-77
2022/02/20 12:47:53;;;;;;;74.07;10.70;;;6.80;99.90;;;;;;5034309;28;20551;-77
2022/02/20 12:50:21;;;;;;;99.22;12.25;;;6.90;99.90;;;;;;5034556;28;20025;-76